Time;durP1;ratioP1;P1;durP2;ratioP2;P2;SDS_P1;SDS_P2;PMS_P1;PMS_P2;Temp;Humidity;BMP_temperature;BMP_pressure;BME280_temperature;BME280_humidity;BME280_pressure;Samples;Min_cycle;Max_cycle;Signal;HPM_P1;HPM_P2
2021/12/30 00:00:19;;;;;;;1.27;1.17;;;13.50;99.90;;;;;;5094571;28;20878;-59
2021/12/30 00:02:46;;;;;;;1.97;1.10;;;13.60;99.90;;;;;;5096743;28;20809;-59
2021/12/30 00:05:15;;;;;;;2.50;1.23;;;13.60;99.90;;;;;;5096743;28;20443;-59
2021/12/30 00:07:44;;;;;;;2.30;1.30;;;13.60;99.90;;;;;;5096119;28;20475;-59
2021/12/30 00:10:12;;;;;;;1.20;1.10;;;13.50;99.90;;;;;;5096449;28;20558;-59
2021/12/30 00:12:40;;;;;;;1.20;1.10;;;13.60;99.90;;;;;;5096179;28;20485;-59
2021/12/30 00:15:09;;;;;;;4.20;1.40;;;13.60;99.90;;;;;;5096438;28;20443;-59
2021/12/30 00:17:36;;;;;;;1.20;1.10;;;13.50;99.90;;;;;;5096216;28;20439;-59
2021/12/30 00:20:05;;;;;;;1.83;1.20;;;13.60;99.90;;;;;;5096388;28;20814;-59
2021/12/30 00:22:34;;;;;;;1.50;1.40;;;13.60;99.90;;;;;;5096429;28;20449;-59
2021/12/30 00:25:02;;;;;;;1.83;1.73;;;13.60;99.90;;;;;;5096243;28;20447;-59
2021/12/30 00:27:29;;;;;;;1.43;1.33;;;13.60;99.90;;;;;;5095989;28;20471;-59
2021/12/30 00:29:56;;;;;;;4.20;1.60;;;13.60;99.90;;;;;;5096202;28;20447;-59
2021/12/30 00:32:23;;;;;;;1.87;1.33;;;13.60;99.90;;;;;;5096075;28;20447;-59
2021/12/30 00:34:50;;;;;;;1.20;1.10;;;13.70;99.90;;;;;;5095750;28;20926;-59
2021/12/30 00:37:17;;;;;;;1.40;1.30;;;13.60;99.90;;;;;;5096300;28;20809;-59
2021/12/30 00:39:46;;;;;;;1.33;1.20;;;13.70;99.90;;;;;;5095562;28;20459;-59
2021/12/30 00:42:13;;;;;;;1.50;1.33;;;13.60;99.90;;;;;;5095586;28;20458;-59
2021/12/30 00:44:40;;;;;;;2.70;1.30;;;13.60;99.90;;;;;;5095956;28;20443;-59
2021/12/30 00:47:08;;;;;;;1.63;1.40;;;13.60;99.90;;;;;;5095433;28;20486;-59
2021/12/30 00:49:35;;;;;;;2.90;1.20;;;13.50;99.90;;;;;;5095453;28;20453;-59
2021/12/30 00:52:02;;;;;;;1.93;1.50;;;13.50;99.90;;;;;;5095466;28;20467;-59
2021/12/30 00:54:29;;;;;;;2.27;1.43;;;13.60;99.90;;;;;;5095304;28;20447;-59
2021/12/30 00:56:59;;;;;;;1.63;1.40;;;13.60;99.90;;;;;;5095573;28;20532;-59
2021/12/30 00:59:26;;;;;;;1.57;1.30;;;13.50;99.90;;;;;;5095375;28;20451;-59
2021/12/30 01:01:53;;;;;;;1.80;1.40;;;13.50;99.90;;;;;;5095545;28;20469;-59
2021/12/30 01:04:21;;;;;;;3.00;1.47;;;13.50;99.90;;;;;;5095505;28;20444;-59
2021/12/30 01:06:49;;;;;;;1.80;1.50;;;13.50;99.90;;;;;;5095530;28;20491;-59
2021/12/30 01:09:16;;;;;;;2.60;1.20;;;13.50;99.90;;;;;;5095409;28;20870;-59
2021/12/30 01:11:43;;;;;;;1.87;1.30;;;13.60;99.90;;;;;;5093771;28;20578;-59
2021/12/30 01:14:17;;;;;;;1.67;1.20;;;13.60;99.90;;;;;;5095254;28;20446;-59
2021/12/30 01:16:48;;;;;;;1.30;1.20;;;13.60;99.90;;;;;;5095403;28;20858;-59
2021/12/30 01:19:23;;;;;;;1.67;1.57;;;13.60;99.90;;;;;;5094887;28;20914;-59
2021/12/30 01:21:53;;;;;;;2.93;1.53;;;13.60;99.90;;;;;;5094773;28;20463;-59
2021/12/30 01:24:21;;;;;;;1.30;1.20;;;13.60;99.90;;;;;;5095043;28;20450;-59
2021/12/30 01:26:48;;;;;;;3.73;1.43;;;13.60;99.90;;;;;;5095198;28;20538;-59
2021/12/30 01:29:17;;;;;;;6.17;1.40;;;13.60;99.90;;;;;;5094988;28;20523;-59
2021/12/30 01:31:44;;;;;;;1.50;1.40;;;13.60;99.90;;;;;;5094885;28;20471;-59
2021/12/30 01:34:12;;;;;;;1.50;1.40;;;13.50;99.90;;;;;;5094720;28;20530;-59
2021/12/30 01:36:39;;;;;;;3.30;1.37;;;13.40;99.90;;;;;;5094819;28;20456;-59
2021/12/30 01:39:06;;;;;;;2.63;1.33;;;13.50;99.90;;;;;;5094669;28;20439;-59
2021/12/30 01:41:33;;;;;;;2.40;1.40;;;13.50;99.90;;;;;;5094868;28;20474;-59
2021/12/30 01:44:00;;;;;;;1.30;1.20;;;13.60;99.90;;;;;;5094394;28;20941;-59
2021/12/30 01:46:37;;;;;;;1.80;1.50;;;13.60;99.90;;;;;;5094392;28;20930;-59
2021/12/30 01:49:05;;;;;;;2.87;1.77;;;13.50;99.90;;;;;;5094274;28;21080;-59
2021/12/30 01:51:32;;;;;;;1.83;1.30;;;13.50;99.90;;;;;;5094342;28;20966;-59
2021/12/30 01:53:59;;;;;;;2.30;1.47;;;13.60;99.90;;;;;;5094506;28;20450;-59
2021/12/30 01:56:27;;;;;;;3.20;1.90;;;13.50;99.90;;;;;;5094475;28;20810;-59
2021/12/30 01:58:55;;;;;;;2.30;1.80;;;13.50;99.90;;;;;;5094234;28;20450;-59
2021/12/30 02:01:24;;;;;;;1.73;1.33;;;13.50;99.90;;;;;;5094316;28;20889;-59
2021/12/30 02:03:52;;;;;;;2.70;1.40;;;13.60;99.90;;;;;;5094341;28;20451;-59
2021/12/30 02:06:19;;;;;;;1.83;1.40;;;13.50;99.90;;;;;;5094577;28;20554;-59
2021/12/30 02:08:47;;;;;;;1.83;1.63;;;13.40;99.90;;;;;;5094139;28;20475;-59
2021/12/30 02:11:14;;;;;;;2.40;1.60;;;13.40;99.90;;;;;;5094025;28;20478;-59
2021/12/30 02:13:41;;;;;;;2.10;1.50;;;13.40;99.90;;;;;;5094371;28;20428;-59
2021/12/30 02:16:08;;;;;;;3.40;1.80;;;13.40;99.90;;;;;;5093848;28;20941;-59
2021/12/30 02:18:35;;;;;;;2.63;1.47;;;13.30;99.90;;;;;;5093786;28;20451;-59
2021/12/30 02:21:04;;;;;;;2.83;1.60;;;13.40;99.90;;;;;;5094091;28;20463;-59
2021/12/30 02:23:33;;;;;;;3.97;1.77;;;13.40;99.90;;;;;;5093755;28;20443;-59
2021/12/30 02:26:02;;;;;;;2.50;1.63;;;13.40;99.90;;;;;;5093959;28;20526;-59
2021/12/30 02:28:31;;;;;;;2.03;1.50;;;13.40;99.90;;;;;;5093798;28;20753;-59
2021/12/30 02:31:01;;;;;;;2.43;2.00;;;13.50;99.90;;;;;;5093927;28;20473;-59
2021/12/30 02:33:28;;;;;;;3.40;1.80;;;13.50;99.90;;;;;;5093823;28;20447;-59
2021/12/30 02:35:57;;;;;;;2.40;1.60;;;13.50;99.90;;;;;;5093770;28;20505;-59
2021/12/30 02:38:26;;;;;;;2.63;2.30;;;13.50;99.90;;;;;;5093715;28;20451;-59
2021/12/30 02:40:55;;;;;;;4.90;1.60;;;13.60;99.90;;;;;;5093734;28;20469;-59
2021/12/30 02:43:25;;;;;;;1.77;1.50;;;13.50;99.90;;;;;;5093450;28;20542;-59
2021/12/30 02:45:53;;;;;;;4.20;1.50;;;13.60;99.90;;;;;;5093397;28;20946;-59
2021/12/30 02:48:22;;;;;;;2.90;1.70;;;13.60;99.90;;;;;;5093410;28;20985;-59
2021/12/30 02:50:51;;;;;;;1.97;1.77;;;13.50;99.90;;;;;;5093519;28;21036;-59
2021/12/30 02:53:19;;;;;;;2.17;1.10;;;13.60;99.90;;;;;;5093582;28;20444;-59
2021/12/30 02:55:49;;;;;;;1.97;1.20;;;13.60;99.90;;;;;;5093692;28;20535;-59
2021/12/30 02:58:16;;;;;;;2.27;1.63;;;13.50;99.90;;;;;;5093527;28;20439;-59
2021/12/30 03:00:45;;;;;;;2.33;1.33;;;13.60;99.90;;;;;;5093252;28;20467;-59
2021/12/30 03:03:18;;;;;;;2.70;1.83;;;13.60;99.90;;;;;;5093291;28;20443;-59
2021/12/30 03:05:45;;;;;;;1.50;1.40;;;13.60;99.90;;;;;;5093574;28;20496;-59
2021/12/30 03:08:12;;;;;;;2.27;1.40;;;13.70;99.90;;;;;;5093059;28;20850;-59
2021/12/30 03:10:40;;;;;;;1.40;1.30;;;13.70;99.90;;;;;;5093066;28;20474;-59
2021/12/30 03:13:10;;;;;;;3.17;1.17;;;13.80;99.90;;;;;;5093098;28;20481;-59
2021/12/30 03:15:38;;;;;;;2.53;1.63;;;13.80;99.90;;;;;;5093703;28;20451;-59
2021/12/30 03:18:05;;;;;;;1.60;1.20;;;13.80;99.90;;;;;;5093063;28;20534;-59
2021/12/30 03:20:34;;;;;;;1.40;1.30;;;13.80;99.90;;;;;;5093523;28;20463;-59
2021/12/30 03:23:02;;;;;;;1.90;1.40;;;13.80;99.90;;;;;;5093286;28;20447;-59
2021/12/30 03:25:29;;;;;;;1.53;1.43;;;13.80;99.90;;;;;;5093028;28;20602;-59
2021/12/30 03:27:57;;;;;;;1.40;1.30;;;13.80;99.90;;;;;;5093332;28;20482;-59
2021/12/30 03:30:26;;;;;;;4.50;1.70;;;13.80;99.90;;;;;;5093249;28;20463;-59
2021/12/30 03:32:53;;;;;;;2.80;1.40;;;13.90;99.90;;;;;;5092914;28;20451;-59
2021/12/30 03:35:20;;;;;;;1.93;1.40;;;14.00;99.90;;;;;;5095009;28;20447;-59
2021/12/30 03:37:47;;;;;;;1.23;1.13;;;13.90;99.90;;;;;;5097291;28;20424;-59
2021/12/30 03:40:18;;;;;;;1.53;1.43;;;13.90;99.90;;;;;;5097051;28;20482;-59
2021/12/30 03:42:45;;;;;;;1.23;1.10;;;14.00;99.90;;;;;;5097101;28;20436;-59
2021/12/30 03:45:14;;;;;;;1.40;1.30;;;13.90;99.90;;;;;;5096881;28;20443;-59
2021/12/30 03:47:46;;;;;;;2.20;1.10;;;13.90;99.90;;;;;;5096979;28;20486;-59
2021/12/30 03:50:19;;;;;;;1.80;1.10;;;14.00;99.90;;;;;;5096910;28;20467;-59
2021/12/30 03:52:47;;;;;;;1.27;1.17;;;14.10;99.90;;;;;;5096929;28;20432;-59
2021/12/30 03:55:15;;;;;;;1.20;1.10;;;14.10;99.90;;;;;;5096660;28;20530;-59
2021/12/30 03:57:42;;;;;;;2.70;1.63;;;14.10;99.90;;;;;;5096797;28;20807;-59
2021/12/30 04:00:11;;;;;;;1.27;1.17;;;14.20;99.90;;;;;;5096705;28;20467;-59
2021/12/30 04:02:38;;;;;;;1.53;1.20;;;14.10;99.90;;;;;;5096521;28;20961;-59
2021/12/30 04:05:09;;;;;;;1.70;1.50;;;14.10;99.90;;;;;;5096327;28;20836;-59
2021/12/30 04:07:36;;;;;;;1.37;1.27;;;14.00;99.90;;;;;;5096714;28;20542;-59
2021/12/30 04:10:04;;;;;;;2.57;1.40;;;14.00;99.90;;;;;;5096741;28;20465;-59
2021/12/30 04:12:31;;;;;;;2.20;1.50;;;14.00;99.90;;;;;;5096083;28;20475;-59
2021/12/30 04:14:58;;;;;;;5.33;1.50;;;14.00;99.90;;;;;;5096501;28;20447;-59
2021/12/30 04:17:25;;;;;;;1.43;1.20;;;14.00;99.90;;;;;;5096232;28;20458;-59
2021/12/30 04:19:53;;;;;;;1.50;1.30;;;14.00;99.90;;;;;;5096310;28;20443;-59
2021/12/30 04:22:21;;;;;;;1.77;1.37;;;14.00;99.90;;;;;;5096322;28;20458;-59
2021/12/30 04:24:49;;;;;;;1.43;1.30;;;13.80;99.90;;;;;;5096063;28;20538;-59
2021/12/30 04:27:16;;;;;;;4.30;1.40;;;13.70;99.90;;;;;;5096033;28;20534;-59
2021/12/30 04:29:44;;;;;;;2.23;1.30;;;13.60;99.90;;;;;;5096027;28;20483;-59
2021/12/30 04:32:11;;;;;;;1.50;1.10;;;13.70;99.90;;;;;;5095810;28;20542;-59
2021/12/30 04:34:38;;;;;;;1.63;1.43;;;13.80;99.90;;;;;;5096221;28;20448;-59
2021/12/30 04:37:05;;;;;;;1.10;1.00;;;13.70;99.90;;;;;;5096218;28;20800;-59
2021/12/30 04:39:33;;;;;;;1.37;1.23;;;13.70;99.90;;;;;;5095829;28;20766;-59
2021/12/30 04:42:01;;;;;;;1.40;1.20;;;13.60;99.90;;;;;;5096063;28;20829;-59
2021/12/30 04:44:28;;;;;;;3.17;1.50;;;13.60;99.90;;;;;;5095627;28;20939;-59
2021/12/30 04:46:56;;;;;;;1.77;1.67;;;13.60;99.90;;;;;;5095246;28;20452;-60
2021/12/30 04:49:23;;;;;;;1.57;1.20;;;13.60;99.90;;;;;;5095869;28;20479;-59
2021/12/30 04:51:50;;;;;;;1.40;1.30;;;13.50;99.90;;;;;;5095687;28;20503;-59
2021/12/30 04:54:18;;;;;;;1.47;1.37;;;13.50;99.90;;;;;;5095376;28;20517;-59
2021/12/30 04:56:47;;;;;;;2.10;1.43;;;13.50;99.90;;;;;;5095773;28;20443;-59
2021/12/30 04:59:14;;;;;;;1.53;1.30;;;13.60;99.90;;;;;;5095408;28;20442;-59
2021/12/30 05:01:41;;;;;;;2.50;1.27;;;13.50;99.90;;;;;;5095468;28;20494;-59
2021/12/30 05:04:08;;;;;;;1.20;1.10;;;13.50;99.90;;;;;;5095687;28;20805;-59
2021/12/30 05:06:36;;;;;;;1.20;1.10;;;13.50;99.90;;;;;;5095535;28;20452;-59
2021/12/30 05:09:06;;;;;;;1.40;1.20;;;13.50;99.90;;;;;;5095325;28;20497;-59
2021/12/30 05:11:33;;;;;;;2.67;1.53;;;13.50;99.90;;;;;;5094870;28;20817;-59
2021/12/30 05:14:02;;;;;;;1.20;1.10;;;13.50;99.90;;;;;;5095267;28;20933;-59
2021/12/30 05:16:29;;;;;;;1.40;1.30;;;13.50;99.90;;;;;;5094901;28;20542;-59
2021/12/30 05:19:00;;;;;;;1.30;1.20;;;13.40;99.90;;;;;;5095209;28;20440;-59
2021/12/30 05:21:28;;;;;;;1.10;1.00;;;13.40;99.90;;;;;;5095257;28;20798;-59
2021/12/30 05:23:55;;;;;;;1.13;1.03;;;13.50;99.90;;;;;;5094808;28;20538;-60
2021/12/30 05:26:25;;;;;;;3.73;1.50;;;13.50;99.90;;;;;;5094747;28;20451;-59
2021/12/30 05:28:52;;;;;;;1.50;1.20;;;13.50;99.90;;;;;;5095081;28;20490;-59
2021/12/30 05:31:20;;;;;;;1.50;1.40;;;13.40;99.90;;;;;;5094583;28;20475;-59
2021/12/30 05:33:47;;;;;;;1.60;1.10;;;13.50;99.90;;;;;;5094929;28;20444;-59
2021/12/30 05:36:14;;;;;;;1.53;1.20;;;13.50;99.90;;;;;;5095062;28;20452;-59
2021/12/30 05:38:42;;;;;;;2.60;1.10;;;13.50;99.90;;;;;;5094471;28;20440;-60
2021/12/30 05:41:09;;;;;;;1.87;1.13;;;13.50;99.90;;;;;;5094883;28;20562;-59
2021/12/30 05:43:36;;;;;;;1.10;1.00;;;13.50;99.90;;;;;;5094735;28;20447;-59
2021/12/30 05:46:03;;;;;;;1.20;1.10;;;13.50;99.90;;;;;;5095193;28;20444;-61
2021/12/30 05:48:32;;;;;;;2.00;1.20;;;13.40;99.90;;;;;;5094507;28;20477;-60
2021/12/30 05:51:00;;;;;;;1.90;1.40;;;13.40;99.90;;;;;;5094286;28;20550;-60
2021/12/30 05:53:27;;;;;;;1.40;1.10;;;13.30;99.90;;;;;;5094863;28;20451;-59
2021/12/30 05:55:55;;;;;;;3.83;1.30;;;13.30;99.90;;;;;;5094544;28;20452;-59
2021/12/30 05:58:22;;;;;;;1.63;1.07;;;13.30;99.90;;;;;;5093963;28;20542;-59
2021/12/30 06:00:49;;;;;;;1.30;1.10;;;13.40;99.90;;;;;;5094452;28;20815;-59
2021/12/30 06:03:19;;;;;;;1.60;1.03;;;13.50;99.90;;;;;;5094446;28;20448;-60
2021/12/30 06:05:47;;;;;;;1.20;1.10;;;13.50;99.90;;;;;;5094141;28;20502;-60
2021/12/30 06:08:15;;;;;;;1.30;1.13;;;13.50;99.90;;;;;;5094450;28;20424;-59
2021/12/30 06:10:43;;;;;;;1.20;1.10;;;13.50;99.90;;;;;;5094145;28;20459;-59
2021/12/30 06:13:10;;;;;;;1.33;1.23;;;13.60;99.90;;;;;;5093818;28;20479;-59
2021/12/30 06:15:38;;;;;;;2.03;1.00;;;13.60;99.90;;;;;;5094394;28;20546;-59
2021/12/30 06:18:06;;;;;;;1.70;1.30;;;13.50;99.90;;;;;;5094159;28;20444;-59
2021/12/30 06:20:33;;;;;;;1.30;1.10;;;13.40;99.90;;;;;;5093769;28;20883;-59
2021/12/30 06:23:02;;;;;;;4.80;1.10;;;13.40;99.90;;;;;;5093820;28;20439;-59
2021/12/30 06:25:29;;;;;;;1.20;1.10;;;13.40;99.90;;;;;;5094042;28;20447;-59
2021/12/30 06:27:56;;;;;;;2.30;1.30;;;13.40;99.90;;;;;;5093911;28;20530;-59
2021/12/30 06:30:23;;;;;;;1.40;1.30;;;13.30;99.90;;;;;;5093625;28;20493;-59
2021/12/30 06:32:50;;;;;;;1.60;1.10;;;13.30;99.90;;;;;;5093981;28;20454;-59
2021/12/30 06:35:18;;;;;;;1.20;1.07;;;13.40;99.90;;;;;;5093713;28;20466;-59
2021/12/30 06:37:45;;;;;;;1.20;1.00;;;13.50;99.90;;;;;;5093752;28;20428;-59
2021/12/30 06:40:15;;;;;;;1.60;1.20;;;13.50;99.90;;;;;;5093698;28;20464;-59
2021/12/30 06:42:43;;;;;;;1.20;1.10;;;13.50;99.90;;;;;;5093695;28;20458;-59
2021/12/30 06:45:12;;;;;;;1.20;1.10;;;13.50;99.90;;;;;;5093345;28;20492;-59
2021/12/30 06:47:39;;;;;;;1.53;1.10;;;13.50;99.90;;;;;;5093814;28;20472;-59
2021/12/30 06:50:08;;;;;;;1.30;1.20;;;13.50;99.90;;;;;;5093121;28;21043;-59
2021/12/30 06:52:35;;;;;;;1.23;1.13;;;13.60;99.90;;;;;;5093204;28;20451;-59
2021/12/30 06:55:02;;;;;;;1.20;1.03;;;13.60;99.90;;;;;;5093400;28;20451;-59
2021/12/30 06:57:31;;;;;;;1.50;1.00;;;13.60;99.90;;;;;;5093505;28;20443;-59
2021/12/30 06:59:58;;;;;;;1.10;1.00;;;13.60;99.90;;;;;;5093202;28;20443;-59
2021/12/30 07:02:25;;;;;;;2.40;1.07;;;13.60;99.90;;;;;;5093305;28;20805;-59
2021/12/30 07:04:52;;;;;;;1.10;1.00;;;13.50;99.90;;;;;;5093149;28;20459;-59
2021/12/30 07:07:19;;;;;;;1.30;1.20;;;13.50;99.90;;;;;;5093145;28;20538;-59
2021/12/30 07:09:47;;;;;;;1.90;1.10;;;13.50;99.90;;;;;;5096024;28;20485;-59
2021/12/30 07:12:14;;;;;;;1.40;1.10;;;13.50;99.90;;;;;;5097143;28;20515;-59
2021/12/30 07:14:43;;;;;;;1.20;1.10;;;13.50;99.90;;;;;;5097174;28;21003;-59
2021/12/30 07:17:10;;;;;;;2.20;1.17;;;13.50;99.90;;;;;;5097538;28;20453;-59
2021/12/30 07:19:37;;;;;;;2.30;1.03;;;13.50;99.90;;;;;;5097673;28;20444;-59
2021/12/30 07:22:05;;;;;;;1.87;1.40;;;13.50;99.90;;;;;;5097317;28;20470;-59
2021/12/30 07:24:32;;;;;;;1.30;1.20;;;13.50;99.90;;;;;;5097418;28;20547;-59
2021/12/30 07:26:59;;;;;;;1.20;1.10;;;13.50;99.90;;;;;;5097533;28;20794;-59
2021/12/30 07:29:26;;;;;;;1.20;1.10;;;13.50;99.90;;;;;;5097262;28;20927;-59
2021/12/30 07:31:55;;;;;;;1.20;1.10;;;13.50;99.90;;;;;;5097167;28;20493;-59
2021/12/30 07:34:22;;;;;;;3.27;1.27;;;13.50;99.90;;;;;;5097319;28;20453;-59
2021/12/30 07:36:49;;;;;;;1.20;1.10;;;13.50;99.90;;;;;;5097152;28;20494;-59
2021/12/30 07:39:16;;;;;;;1.50;1.10;;;13.60;99.90;;;;;;5096666;28;20926;-59
2021/12/30 07:41:43;;;;;;;1.03;0.93;;;13.60;99.90;;;;;;5097121;28;20467;-59
2021/12/30 07:44:11;;;;;;;1.23;1.13;;;13.50;99.90;;;;;;5096712;28;20946;-60
2021/12/30 07:46:38;;;;;;;1.20;1.00;;;13.60;99.90;;;;;;5096684;28;20454;-60
2021/12/30 07:49:07;;;;;;;1.10;1.00;;;13.50;99.90;;;;;;5096835;28;20494;-60
2021/12/30 07:51:34;;;;;;;1.20;1.10;;;13.50;99.90;;;;;;5096460;28;21000;-59
2021/12/30 07:54:01;;;;;;;1.10;1.00;;;13.50;99.90;;;;;;5096772;28;20439;-60
2021/12/30 07:56:28;;;;;;;1.10;1.00;;;13.60;99.90;;;;;;5096916;28;20451;-60
2021/12/30 07:58:55;;;;;;;1.10;1.00;;;13.60;99.90;;;;;;5096462;28;20435;-59
2021/12/30 08:01:22;;;;;;;1.17;1.07;;;13.60;99.90;;;;;;5096429;28;20464;-59
2021/12/30 08:03:50;;;;;;;1.30;1.13;;;13.70;99.90;;;;;;5096813;28;20443;-60
2021/12/30 08:06:18;;;;;;;1.13;1.03;;;13.70;99.90;;;;;;5096628;28;20813;-60
2021/12/30 08:08:45;;;;;;;4.33;1.10;;;13.70;99.90;;;;;;5096389;28;20447;-60
2021/12/30 08:11:12;;;;;;;1.20;1.00;;;13.80;99.90;;;;;;5096353;28;20966;-60
2021/12/30 08:13:40;;;;;;;1.10;0.97;;;13.70;99.90;;;;;;5096051;28;20471;-60
2021/12/30 08:16:07;;;;;;;1.10;1.00;;;13.80;99.90;;;;;;5096428;28;20479;-60
2021/12/30 08:18:34;;;;;;;1.10;1.00;;;13.90;99.90;;;;;;5096419;28;20451;-59
2021/12/30 08:21:01;;;;;;;1.10;1.00;;;13.90;99.90;;;;;;5095375;28;20468;-60
2021/12/30 08:23:30;;;;;;;1.40;1.30;;;13.90;99.90;;;;;;5096182;28;20516;-60
2021/12/30 08:25:57;;;;;;;1.47;1.20;;;13.90;99.90;;;;;;5096206;28;20546;-59
2021/12/30 08:28:25;;;;;;;1.13;1.03;;;13.90;99.90;;;;;;5096354;28;20443;-59
2021/12/30 08:30:52;;;;;;;1.30;1.20;;;14.00;99.90;;;;;;5095627;28;20977;-59
2021/12/30 08:33:20;;;;;;;1.20;1.10;;;14.00;99.90;;;;;;5095967;28;20454;-60
2021/12/30 08:35:47;;;;;;;1.13;1.00;;;14.10;99.90;;;;;;5096108;28;20451;-59
2021/12/30 08:38:14;;;;;;;1.40;1.03;;;14.10;99.90;;;;;;5096027;28;20451;-59
2021/12/30 08:40:44;;;;;;;1.60;1.10;;;14.10;99.90;;;;;;5095591;28;20464;-59
2021/12/30 08:43:13;;;;;;;1.00;0.90;;;14.00;99.90;;;;;;5095575;28;20493;-59
2021/12/30 08:45:40;;;;;;;1.43;1.30;;;14.00;99.90;;;;;;5095746;28;20447;-60
2021/12/30 08:48:07;;;;;;;1.40;1.30;;;14.10;99.90;;;;;;5095682;28;20447;-60
2021/12/30 08:50:35;;;;;;;1.90;1.30;;;14.10;99.90;;;;;;5095784;28;20503;-60
2021/12/30 08:53:02;;;;;;;2.67;1.30;;;14.10;99.90;;;;;;5095681;28;20443;-59
2021/12/30 08:55:29;;;;;;;1.37;1.27;;;14.00;99.90;;;;;;5095335;28;20997;-59
2021/12/30 08:57:58;;;;;;;1.20;1.10;;;14.00;99.90;;;;;;5095744;28;20891;-60
2021/12/30 09:00:29;;;;;;;1.90;1.10;;;14.10;99.90;;;;;;5095463;28;20547;-59
2021/12/30 09:03:00;;;;;;;2.03;1.70;;;14.10;99.90;;;;;;5095282;28;20427;-59
2021/12/30 09:05:28;;;;;;;2.60;1.40;;;14.00;99.90;;;;;;5095276;28;20428;-60
2021/12/30 09:07:55;;;;;;;3.33;1.40;;;;;;;;;;5090867;28;20440;-60
2021/12/30 09:10:22;;;;;;;1.40;1.20;;;14.30;99.90;;;;;;5078236;28;20495;-60
2021/12/30 09:12:51;;;;;;;1.63;1.40;;;14.40;99.90;;;;;;5073599;28;20559;-60
2021/12/30 09:15:21;;;;;;;1.67;1.57;;;14.30;99.90;;;;;;5077079;28;20506;-60
2021/12/30 09:17:49;;;;;;;1.50;1.30;;;14.40;99.90;;;;;;5089088;28;20459;-60
2021/12/30 09:20:17;;;;;;;1.30;1.17;;;14.30;99.90;;;;;;5094156;28;20555;-60
2021/12/30 09:22:45;;;;;;;1.63;1.30;;;14.30;99.90;;;;;;5094751;28;20547;-60
2021/12/30 09:25:14;;;;;;;1.40;1.13;;;14.40;99.90;;;;;;5080012;28;20547;-60
2021/12/30 09:27:42;;;;;;;1.70;1.40;;;14.50;99.90;;;;;;5074538;28;20498;-60
2021/12/30 09:30:12;;;;;;;1.30;1.20;;;14.60;99.90;;;;;;5087554;28;20566;-60
2021/12/30 09:32:53;;;;;;;1.70;1.30;;;14.70;99.90;;;;;;5093667;28;20428;-61
2021/12/30 09:35:39;;;;;;;1.20;1.10;;;14.60;99.90;;;;;;5089920;28;20505;-60
2021/12/30 09:38:27;;;;;;;1.50;1.30;;;14.50;99.90;;;;;;5092491;28;20802;-60
2021/12/30 09:40:58;;;;;;;1.93;1.30;;;14.60;99.90;;;;;;5091634;28;20483;-63
2021/12/30 09:43:43;;;;;;;1.20;1.10;;;14.70;99.90;;;;;;5094512;28;20809;-63
2021/12/30 09:46:31;;;;;;;6.97;1.70;;;14.80;99.90;;;;;;5088875;28;20455;-63
2021/12/30 09:49:18;;;;;;;1.50;1.10;;;15.00;99.90;;;;;;5094419;28;20519;-63
2021/12/30 09:52:03;;;;;;;2.27;1.23;;;15.20;99.90;;;;;;5094175;28;20467;-64
2021/12/30 09:54:44;;;;;;;1.33;1.23;;;15.20;99.90;;;;;;5089900;28;20444;-64
2021/12/30 09:57:40;;;;;;;2.13;1.30;;;15.20;99.90;;;;;;5074107;28;20891;-63
2021/12/30 10:00:21;;;;;;;2.57;1.50;;;15.20;99.90;;;;;;5029137;28;20482;-63
2021/12/30 10:03:12;;;;;;;1.27;1.17;;;15.40;99.90;;;;;;5073780;28;20868;-63
2021/12/30 10:05:42;;;;;;;1.93;1.30;;;15.40;99.90;;;;;;5072406;28;20881;-64
2021/12/30 10:08:16;;;;;;;1.10;1.00;;;15.30;99.90;;;;;;5073639;28;20908;-64
2021/12/30 10:10:45;;;;;;;1.30;1.20;;;15.30;99.90;;;;;;5073456;28;20488;-63
2021/12/30 10:13:21;;;;;;;1.40;1.20;;;15.30;99.90;;;;;;5071780;28;20545;-64
2021/12/30 10:15:52;;;;;;;1.20;1.10;;;15.40;99.90;;;;;;5073280;28;20513;-63
2021/12/30 10:18:20;;;;;;;1.30;1.00;;;15.60;99.90;;;;;;5073398;28;20443;-62
2021/12/30 10:20:49;;;;;;;1.20;1.10;;;15.70;99.90;;;;;;5073157;28;20469;-62
2021/12/30 10:23:18;;;;;;;1.03;0.93;;;15.50;99.90;;;;;;5073103;28;20927;-62
2021/12/30 10:25:47;;;;;;;1.17;1.07;;;15.70;99.90;;;;;;5074447;28;20453;-62
2021/12/30 10:28:19;;;;;;;1.60;1.07;;;15.70;99.90;;;;;;5073623;28;20536;-62
2021/12/30 10:30:46;;;;;;;1.20;1.10;;;15.60;99.90;;;;;;5074086;28;20483;-62
2021/12/30 10:33:15;;;;;;;1.83;1.53;;;15.60;99.90;;;;;;5074254;28;20456;-62
2021/12/30 10:35:46;;;;;;;1.40;1.30;;;15.70;99.90;;;;;;5073063;28;20495;-63
2021/12/30 10:38:15;;;;;;;1.30;1.00;;;15.80;99.90;;;;;;5072608;28;20563;-62
2021/12/30 10:40:44;;;;;;;1.20;1.00;;;16.20;99.90;;;;;;5073282;28;20794;-61
2021/12/30 10:43:30;;;;;;;1.60;1.27;;;16.50;99.90;;;;;;5075261;28;20814;-61
2021/12/30 10:46:06;;;;;;;1.30;1.20;;;17.30;99.90;;;;;;5090775;28;20893;-61
2021/12/30 10:48:34;;;;;;;1.17;1.07;;;18.00;99.90;;;;;;5089007;28;21005;-62
2021/12/30 10:51:13;;;;;;;1.50;1.20;;;18.40;99.90;;;;;;5073000;28;20858;-62
2021/12/30 10:53:42;;;;;;;1.13;1.00;;;18.90;99.90;;;;;;5072208;28;20464;-62
2021/12/30 10:56:39;;;;;;;1.30;1.20;;;18.90;99.90;;;;;;5073001;28;20455;-62
2021/12/30 10:59:25;;;;;;;2.77;1.20;;;19.30;99.90;;;;;;5011256;28;20934;-62
2021/12/30 11:01:56;;;;;;;1.30;1.20;;;18.70;99.90;;;;;;5066798;28;20481;-62
2021/12/30 11:04:36;;;;;;;1.67;1.00;;;18.80;99.90;;;;;;5073364;28;20801;-62
2021/12/30 11:07:04;;;;;;;1.30;1.20;;;18.40;99.90;;;;;;5073253;28;20492;-62
2021/12/30 11:09:33;;;;;;;1.30;1.20;;;18.10;99.90;;;;;;5072897;28;20458;-62
2021/12/30 11:12:03;;;;;;;1.30;1.20;;;17.90;99.90;;;;;;5072638;28;20487;-62
2021/12/30 11:14:31;;;;;;;1.50;1.30;;;;;;;;;;5073475;28;20448;-62
2021/12/30 11:17:07;;;;;;;1.07;0.97;;;18.90;99.90;;;;;;5072679;28;20452;-62
2021/12/30 11:19:37;;;;;;;1.20;1.10;;;19.30;99.90;;;;;;5072539;28;20911;-62
2021/12/30 11:22:08;;;;;;;1.20;1.10;;;19.40;99.90;;;;;;5072673;28;20548;-62
2021/12/30 11:24:37;;;;;;;1.33;1.13;;;19.30;99.90;;;;;;5072864;28;20438;-62
2021/12/30 11:27:05;;;;;;;1.10;1.00;;;18.70;99.90;;;;;;5072647;28;20531;-62
2021/12/30 11:29:36;;;;;;;1.20;1.00;;;19.00;99.90;;;;;;5072977;28;20502;-62
2021/12/30 11:32:05;;;;;;;1.30;1.00;;;19.20;99.90;;;;;;5072769;28;20484;-62
2021/12/30 11:34:32;;;;;;;1.17;1.00;;;19.20;99.90;;;;;;5072957;28;20519;-62
2021/12/30 11:37:00;;;;;;;1.20;1.10;;;19.20;99.90;;;;;;5072748;28;21017;-62
2021/12/30 11:39:28;;;;;;;1.17;0.90;;;19.30;99.90;;;;;;5072361;28;20536;-63
2021/12/30 11:42:05;;;;;;;1.20;1.10;;;19.30;99.90;;;;;;5072401;28;20496;-63
2021/12/30 11:44:36;;;;;;;1.50;1.00;;;19.40;99.90;;;;;;5072873;28;20452;-63
2021/12/30 11:47:05;;;;;;;1.97;1.17;;;19.10;99.90;;;;;;5073057;28;20444;-62
2021/12/30 11:49:57;;;;;;;1.20;1.10;;;19.20;99.90;;;;;;5072420;28;20958;-62
2021/12/30 11:52:50;;;;;;;1.30;1.17;;;18.80;99.90;;;;;;5072679;28;20429;-63
2021/12/30 11:55:52;;;;;;;1.80;1.50;;;18.60;99.90;;;;;;5072804;28;20448;-62
2021/12/30 11:58:44;;;;;;;1.77;1.13;;;18.60;99.90;;;;;;5076169;28;20899;-62
2021/12/30 12:01:42;;;;;;;1.00;0.90;;;18.40;99.90;;;;;;5076262;28;20468;-62
2021/12/30 12:04:16;;;;;;;1.60;1.20;;;18.00;99.90;;;;;;5075887;28;20961;-62
2021/12/30 12:06:59;;;;;;;1.00;0.80;;;17.60;99.90;;;;;;5076603;28;20455;-62
2021/12/30 12:09:42;;;;;;;1.97;1.00;;;17.40;99.90;;;;;;5073694;28;20456;-63
2021/12/30 12:12:13;;;;;;;1.23;1.00;;;17.40;99.90;;;;;;5075893;28;20858;-63
2021/12/30 12:14:45;;;;;;;2.23;1.00;;;17.40;99.90;;;;;;5076224;28;20444;-62
2021/12/30 12:17:18;;;;;;;1.27;0.90;;;17.20;99.90;;;;;;5076195;28;20441;-64
2021/12/30 12:19:47;;;;;;;1.10;0.90;;;17.40;99.90;;;;;;5075743;28;20925;-62
2021/12/30 12:22:29;;;;;;;1.00;0.83;;;17.60;99.90;;;;;;5075915;28;20448;-63
2021/12/30 12:25:08;;;;;;;1.10;1.00;;;17.60;99.90;;;;;;5075807;28;20436;-62
2021/12/30 12:27:37;;;;;;;1.10;0.90;;;17.50;99.90;;;;;;5076062;28;20440;-62
2021/12/30 12:30:08;;;;;;;5.73;1.60;;;17.60;99.90;;;;;;5075386;28;20551;-62
2021/12/30 12:32:39;;;;;;;1.20;1.00;;;17.60;99.90;;;;;;5075799;28;20507;-62
2021/12/30 12:35:25;;;;;;;1.13;1.03;;;17.40;99.90;;;;;;5075910;28;20535;-63
2021/12/30 12:37:56;;;;;;;1.10;1.00;;;17.20;99.90;;;;;;5075906;28;20493;-62
2021/12/30 12:40:44;;;;;;;1.33;0.90;;;17.00;99.90;;;;;;5075377;28;20498;-62
2021/12/30 12:43:27;;;;;;;1.10;1.00;;;16.90;99.90;;;;;;5075523;28;20903;-62
2021/12/30 12:46:02;;;;;;;2.07;1.57;;;16.90;99.90;;;;;;5073708;28;20542;-62
2021/12/30 12:48:32;;;;;;;1.20;1.10;;;16.90;99.90;;;;;;5075237;28;20432;-62
2021/12/30 12:51:01;;;;;;;1.27;1.17;;;16.90;99.90;;;;;;5075022;28;21031;-62
2021/12/30 12:53:56;;;;;;;1.10;1.00;;;16.90;99.90;;;;;;5075358;28;20470;-62
2021/12/30 12:56:30;;;;;;;1.10;1.00;;;16.70;99.90;;;;;;5061162;28;20878;-62
2021/12/30 12:58:59;;;;;;;1.77;1.00;;;16.70;99.90;;;;;;5075133;28;20918;-62
2021/12/30 13:01:29;;;;;;;2.03;1.00;;;16.80;99.90;;;;;;5075163;28;20465;-62